Time;durP1;ratioP1;P1;durP2;ratioP2;P2;SDS_P1;SDS_P2;PMS_P1;PMS_P2;Temp;Humidity;BMP_temperature;BMP_pressure;BME280_temperature;BME280_humidity;BME280_pressure;Samples;Min_cycle;Max_cycle;Signal;HPM_P1;HPM_P2
2022/10/09 00:00:46;;;;;;;10.27;5.25;;;;;;;6.68;85.84;102496.34;5105343;28;20024;-77
2022/10/09 00:03:14;;;;;;;12.60;4.97;;;;;;;6.65;85.96;102496.47;5108173;28;20023;-76
2022/10/09 00:05:39;;;;;;;10.30;5.15;;;;;;;6.63;86.10;102507.06;5095080;28;20080;-77
2022/10/09 00:08:04;;;;;;;9.02;4.88;;;;;;;6.62;85.90;102502.69;5103678;28;20106;-76
2022/10/09 00:10:30;;;;;;;12.07;4.95;;;;;;;6.60;85.99;102498.38;5104703;28;20035;-77
2022/10/09 00:12:56;;;;;;;9.30;5.00;;;;;;;6.58;86.19;102501.06;5104451;28;20454;-77
2022/10/09 00:15:21;;;;;;;8.45;4.63;;;;;;;6.58;86.09;102495.78;5102485;28;20028;-77
2022/10/09 00:17:47;;;;;;;13.05;5.40;;;;;;;6.59;86.50;102515.13;5105759;28;20024;-77
2022/10/09 00:20:13;;;;;;;13.23;5.03;;;;;;;6.58;86.07;102514.28;5104950;28;20397;-76
2022/10/09 00:22:38;;;;;;;13.65;5.50;;;;;;;6.57;86.19;102501.13;5109466;28;20031;-77
2022/10/09 00:25:04;;;;;;;12.20;4.80;;;;;;;6.57;86.60;102503.75;5109959;28;20032;-76
2022/10/09 00:27:30;;;;;;;13.52;4.80;;;;;;;6.55;86.62;102514.38;5108256;28;20075;-76
2022/10/09 00:29:55;;;;;;;7.82;4.78;;;;;;;6.52;86.25;102510.97;5104454;28;20459;-76
2022/10/09 00:32:20;;;;;;;9.68;4.90;;;;;;;6.50;86.33;102503.09;5101838;28;20024;-77
2022/10/09 00:34:46;;;;;;;10.05;5.15;;;;;;;6.46;86.33;102504.09;5101122;28;20463;-77
2022/10/09 00:37:11;;;;;;;12.35;5.70;;;;;;;6.46;86.12;102496.19;5105049;28;20406;-77
2022/10/09 00:39:37;;;;;;;11.32;5.25;;;;;;;6.42;86.47;102494.56;5104668;28;20359;-76
2022/10/09 00:42:03;;;;;;;10.40;5.07;;;;;;;6.41;86.41;102501.63;5111770;28;20027;-76
2022/10/09 00:44:47;;;;;;;9.13;4.70;;;;;;;6.44;86.24;102501.50;5104381;28;20082;-77
2022/10/09 00:47:57;;;;;;;8.98;4.65;;;;;;;6.42;86.28;102489.28;5094056;28;20034;-77
2022/10/09 00:50:34;;;;;;;13.85;5.20;;;;;;;6.39;86.22;102495.53;5153015;22;20143;-46
2022/10/09 00:53:02;;;;;;;8.32;5.13;;;;;;;6.34;86.29;102502.72;5100427;28;20056;-48
2022/10/09 00:55:28;;;;;;;11.80;4.78;;;;;;;6.34;85.92;102491.31;5101703;28;20660;-47
2022/10/09 00:57:56;;;;;;;11.02;4.95;;;;;;;6.29;85.94;102494.97;5104616;28;20408;-46
2022/10/09 01:00:22;;;;;;;8.85;4.95;;;;;;;6.28;86.01;102492.38;5106995;28;20032;-51
2022/10/09 01:02:47;;;;;;;9.60;5.03;;;;;;;6.24;85.87;102493.38;5106822;28;20082;-47
2022/10/09 01:05:13;;;;;;;8.25;4.93;;;;;;;6.20;85.58;102495.25;5107752;28;20021;-46
2022/10/09 01:07:52;;;;;;;10.82;5.30;;;;;;;6.19;86.13;102493.53;5109498;28;20074;-46
2022/10/09 01:10:30;;;;;;;9.70;5.50;;;;;;;6.15;86.25;102496.34;5111232;28;20027;-47
2022/10/09 01:13:04;;;;;;;10.88;5.20;;;;;;;6.13;86.02;102493.75;5105020;28;20524;-47
2022/10/09 01:15:54;;;;;;;8.80;5.10;;;;;;;6.14;86.10;102497.22;5104804;28;20024;-50
2022/10/09 01:18:54;;;;;;;10.75;5.03;;;;;;;6.10;86.46;102499.09;5101976;28;20040;-50
2022/10/09 01:21:44;;;;;;;8.35;4.95;;;;;;;6.07;86.19;102494.78;5011965;28;20073;-47
2022/10/09 01:24:35;;;;;;;8.55;4.90;;;;;;;6.08;85.86;102493.88;5091351;28;20036;-47
2022/10/09 01:27:18;;;;;;;7.60;5.43;;;;;;;6.01;85.74;102497.63;5109213;28;20028;-46
2022/10/09 01:29:48;;;;;;;9.10;5.25;;;;;;;5.90;86.04;102495.25;5109939;28;20047;-49
2022/10/09 01:32:17;;;;;;;9.73;5.50;;;;;;;5.87;85.85;102492.72;5110266;28;20056;-49
2022/10/09 01:34:43;;;;;;;;;;;;;;;5.98;84.79;102488.91;5110969;28;20020;-48
2022/10/09 01:37:10;;;;;;;10.50;5.45;;;;;;;5.85;85.51;102483.16;5096200;28;19922;-47
2022/10/09 01:39:37;;;;;;;9.40;5.28;;;;;;;5.85;85.49;102483.16;5108048;28;20027;-46
2022/10/09 01:42:03;;;;;;;8.52;5.15;;;;;;;5.84;85.96;102476.97;5110357;28;20028;-48
2022/10/09 01:44:31;;;;;;;11.80;4.90;;;;;;;5.81;86.28;102473.59;5108803;28;20032;-49
2022/10/09 01:46:57;;;;;;;10.20;5.13;;;;;;;5.81;86.62;102476.22;5102790;28;20036;-49
2022/10/09 01:49:44;;;;;;;12.00;5.93;;;;;;;5.80;86.35;102472.72;5104780;28;20033;-46
2022/10/09 01:52:21;;;;;;;10.63;5.63;;;;;;;5.79;86.56;102468.34;5104415;28;20073;-50
2022/10/09 01:55:00;;;;;;;9.27;5.35;;;;;;;5.78;86.50;102471.03;5105142;28;20109;-47
2022/10/09 01:57:36;;;;;;;11.70;5.43;;;;;;;5.74;86.64;102462.34;5093039;28;20027;-47
2022/10/09 02:00:08;;;;;;;10.23;4.80;;;;;;;5.73;86.60;102464.13;5107398;28;20028;-50
2022/10/09 02:02:34;;;;;;;11.05;5.60;;;;;;;5.70;86.44;102456.31;5085420;28;20052;-50
2022/10/09 02:05:00;;;;;;;11.60;5.78;;;;;;;5.67;86.72;102453.78;5096340;28;20028;-50
2022/10/09 02:07:27;;;;;;;7.75;5.88;;;;;;;5.65;86.43;102458.22;5093282;28;20028;-50
2022/10/09 02:09:54;;;;;;;10.27;5.55;;;;;;;5.64;86.89;102445.94;5095658;28;20028;-45
2022/10/09 02:12:23;;;;;;;12.43;5.47;;;;;;;5.62;86.85;102441.66;5103957;28;20032;-46
2022/10/09 02:14:48;;;;;;;9.57;5.45;;;;;;;5.63;86.87;102446.00;5094666;28;20033;-48
2022/10/09 02:17:20;;;;;;;10.95;5.53;;;;;;;5.61;87.36;102442.53;5089123;28;20082;-46
2022/10/09 02:19:53;;;;;;;9.90;5.85;;;;;;;5.58;87.47;102440.88;5089251;28;20067;-48
2022/10/09 02:22:26;;;;;;;12.77;5.35;;;;;;;5.59;86.79;102439.97;5085015;28;20023;-50
2022/10/09 02:24:52;;;;;;;9.60;5.05;;;;;;;5.59;86.14;102439.09;5101243;28;20446;-48
2022/10/09 02:27:20;;;;;;;9.95;5.65;;;;;;;5.57;86.43;102437.38;5103799;28;20032;-48
2022/10/09 02:29:46;;;;;;;9.18;5.53;;;;;;;5.55;86.67;102440.97;5090377;28;20033;-46
2022/10/09 02:32:12;;;;;;;11.20;5.80;;;;;;;5.50;86.79;102433.19;5094954;28;20021;-47
2022/10/09 02:34:37;;;;;;;10.18;5.70;;;;;;;5.47;87.28;102432.44;5097327;28;20067;-46
2022/10/09 02:37:03;;;;;;;9.23;5.05;;;;;;;5.43;86.77;102431.66;5087644;28;20041;-48
2022/10/09 02:39:29;;;;;;;11.25;5.40;;;;;;;5.43;86.87;102433.41;5086178;28;20028;-49
2022/10/09 02:41:54;;;;;;;7.38;5.68;;;;;;;5.42;86.92;102439.59;5090349;28;20083;-51
2022/10/09 02:44:20;;;;;;;7.55;4.95;;;;;;;5.41;86.71;102430.81;5089361;28;20028;-50
2022/10/09 02:46:45;;;;;;;10.05;5.20;;;;;;;5.38;87.17;102434.44;5093110;28;20051;-50
2022/10/09 02:49:10;;;;;;;9.50;5.90;;;;;;;5.37;87.21;102435.31;5089911;28;20055;-48
2022/10/09 02:51:35;;;;;;;11.25;6.00;;;;;;;5.36;86.73;102433.63;5090052;28;20036;-49
2022/10/09 02:54:01;;;;;;;12.43;5.65;;;;;;;5.34;86.75;102435.41;5089751;28;20032;-48
2022/10/09 02:56:26;;;;;;;12.13;5.82;;;;;;;5.32;86.91;102431.97;5073874;28;20610;-47
2022/10/09 02:58:52;;;;;;;15.73;5.60;;;;;;;5.31;87.10;102434.63;5070213;28;20079;-48
2022/10/09 03:01:17;;;;;;;9.02;6.07;;;;;;;5.29;87.82;102429.41;5083486;28;20036;-47
2022/10/09 03:03:43;;;;;;;10.13;5.55;;;;;;;5.26;87.54;102432.16;5091305;28;20063;-47
2022/10/09 03:06:12;;;;;;;12.32;6.03;;;;;;;5.26;87.96;102420.72;5090955;28;20054;-48
2022/10/09 03:08:40;;;;;;;12.75;6.05;;;;;;;5.23;87.91;102415.56;5089131;28;20044;-48
2022/10/09 03:11:06;;;;;;;12.03;5.70;;;;;;;5.27;88.47;102422.47;5090114;28;20025;-49
2022/10/09 03:13:31;;;;;;;15.38;6.70;;;;;;;5.23;88.64;102421.72;5090895;28;20689;-47
2022/10/09 03:16:15;;;;;;;15.18;6.53;;;;;;;5.25;88.59;102424.28;5087330;28;20025;-46
2022/10/09 03:18:40;;;;;;;13.05;6.85;;;;;;;5.21;88.81;102425.28;5070827;28;20117;-51
2022/10/09 03:21:07;;;;;;;12.23;6.28;;;;;;;5.17;89.11;102420.09;5070731;28;20029;-47
2022/10/09 03:23:33;;;;;;;12.77;6.90;;;;;;;5.18;89.52;102421.84;5087435;28;20037;-49
2022/10/09 03:26:01;;;;;;;11.43;5.82;;;;;;;5.17;88.95;102422.72;5090844;28;20154;-49
2022/10/09 03:28:27;;;;;;;11.43;6.30;;;;;;;5.15;88.80;102421.06;5089077;28;20112;-48
2022/10/09 03:30:53;;;;;;;11.80;6.13;;;;;;;5.16;89.76;102414.88;5071198;28;20055;-47
2022/10/09 03:33:19;;;;;;;13.27;6.75;;;;;;;5.15;89.68;102416.66;5067551;28;20028;-46
2022/10/09 03:35:48;;;;;;;13.07;6.68;;;;;;;5.14;89.64;102409.63;5069523;28;20104;-48
2022/10/09 03:38:14;;;;;;;14.10;6.80;;;;;;;5.16;89.43;102421.03;5068535;28;20383;-49
2022/10/09 03:40:39;;;;;;;14.45;6.72;;;;;;;5.15;89.11;102413.16;5068804;28;20060;-46
2022/10/09 03:43:05;;;;;;;13.48;5.93;;;;;;;5.16;89.63;102414.88;5069529;28;20029;-49
2022/10/09 03:45:30;;;;;;;11.75;6.25;;;;;;;5.13;89.46;102410.56;5068392;28;20032;-46
2022/10/09 03:47:55;;;;;;;11.68;6.00;;;;;;;5.14;89.08;102411.41;5068348;28;20025;-49
2022/10/09 03:50:21;;;;;;;10.85;6.40;;;;;;;5.12;89.38;102408.81;5086172;28;20076;-46
2022/10/09 03:52:46;;;;;;;10.55;5.50;;;;;;;5.11;89.44;102416.75;5089083;28;20036;-50
2022/10/09 03:55:12;;;;;;;12.13;6.10;;;;;;;5.08;89.46;102411.59;5088985;28;20028;-48
2022/10/09 03:57:37;;;;;;;10.90;6.28;;;;;;;5.06;88.86;102418.66;5087302;28;20033;-50
2022/10/09 04:00:04;;;;;;;9.65;6.40;;;;;;;5.05;89.12;102420.44;5087824;28;20032;-52
2022/10/09 04:02:31;;;;;;;11.32;5.82;;;;;;;5.03;88.74;102424.03;5088709;28;20032;-47
2022/10/09 04:04:56;;;;;;;11.32;6.18;;;;;;;5.02;88.76;102425.78;5088265;28;20052;-51
2022/10/09 04:07:21;;;;;;;13.07;6.50;;;;;;;5.01;88.88;102424.06;5073564;28;20376;-48
2022/10/09 04:09:47;;;;;;;12.77;5.75;;;;;;;5.02;88.51;102427.56;5067526;28;20155;-49
2022/10/09 04:12:12;;;;;;;10.68;6.07;;;;;;;4.99;88.06;102417.97;5069250;28;20029;-50
2022/10/09 04:14:37;;;;;;;11.07;5.95;;;;;;;4.97;88.22;102423.28;5069287;28;20033;-48
2022/10/09 04:17:02;;;;;;;8.75;5.40;;;;;;;4.95;88.06;102414.56;5077243;28;20033;-48
2022/10/09 04:19:28;;;;;;;11.63;6.05;;;;;;;4.94;88.12;102425.16;5088669;28;20021;-50
2022/10/09 04:21:53;;;;;;;9.70;5.75;;;;;;;4.92;88.06;102417.28;5080920;28;20037;-50
2022/10/09 04:24:18;;;;;;;9.80;6.00;;;;;;;4.90;88.34;102423.53;5069334;28;20029;-48
2022/10/09 04:26:43;;;;;;;10.93;5.88;;;;;;;4.88;88.37;102420.03;5068306;28;20033;-47
2022/10/09 04:29:10;;;;;;;12.32;6.28;;;;;;;4.85;88.54;102418.38;5081027;28;20065;-47
2022/10/09 04:31:35;;;;;;;10.20;6.00;;;;;;;4.81;88.08;102414.97;5087247;28;20036;-48
2022/10/09 04:34:00;;;;;;;9.07;5.88;;;;;;;4.76;87.43;102411.59;5088671;28;20092;-47
2022/10/09 04:36:25;;;;;;;7.35;5.05;;;;;;;4.78;87.81;102408.88;5089505;28;20025;-49
2022/10/09 04:38:51;;;;;;;8.48;4.93;;;;;;;4.77;87.77;102400.13;5090991;28;20028;-48
2022/10/09 04:41:16;;;;;;;11.20;5.68;;;;;;;4.74;87.98;102408.13;5095404;28;20036;-49
2022/10/09 04:43:42;;;;;;;8.43;5.30;;;;;;;4.72;88.36;102411.72;5094758;28;20067;-49
2022/10/09 04:46:11;;;;;;;10.82;5.68;;;;;;;4.69;88.25;102412.66;5094415;28;20505;-51
2022/10/09 04:48:37;;;;;;;8.23;5.10;;;;;;;4.68;87.75;102403.03;5076219;28;20028;-50
2022/10/09 04:51:05;;;;;;;9.80;5.43;;;;;;;4.68;87.71;102403.03;5094271;28;20024;-46
2022/10/09 04:53:30;;;;;;;11.95;5.78;;;;;;;4.63;87.68;102403.16;5095254;28;20052;-45
2022/10/09 04:55:55;;;;;;;7.90;5.50;;;;;;;4.62;87.77;102398.78;5096482;28;20051;-47
2022/10/09 04:58:21;;;;;;;10.60;6.13;;;;;;;4.60;87.94;102403.22;5095760;28;20032;-47
2022/10/09 05:00:46;;;;;;;10.75;5.57;;;;;;;4.56;87.78;102393.72;5095402;28;20032;-47
2022/10/09 05:03:12;;;;;;;10.25;5.80;;;;;;;4.56;87.66;102388.44;5096051;28;20025;-47
2022/10/09 05:05:37;;;;;;;8.75;5.45;;;;;;;4.52;87.50;102385.94;5094658;28;20028;-50
2022/10/09 05:08:03;;;;;;;9.07;5.47;;;;;;;4.51;87.70;102385.03;5095299;28;20043;-49
2022/10/09 05:10:30;;;;;;;8.93;5.22;;;;;;;4.51;87.65;102386.81;5095000;28;20032;-47
2022/10/09 05:12:55;;;;;;;8.30;5.53;;;;;;;4.48;87.45;102382.50;5096031;28;20087;-47
2022/10/09 05:15:20;;;;;;;9.38;5.53;;;;;;;4.48;87.73;102379.00;5095342;28;20040;-48
2022/10/09 05:17:45;;;;;;;10.02;5.70;;;;;;;4.45;87.61;102386.06;5095235;28;20029;-49
2022/10/09 05:20:11;;;;;;;7.90;5.70;;;;;;;4.44;87.34;102378.22;5095445;28;20475;-47
2022/10/09 05:22:36;;;;;;;10.00;6.80;;;;;;;4.43;87.17;102381.78;5095575;28;20039;-47
2022/10/09 05:25:01;;;;;;;8.32;6.43;;;;;;;4.40;87.67;102377.44;5096501;28;20100;-48
2022/10/09 05:27:27;;;;;;;11.18;6.97;;;;;;;4.40;87.57;102371.31;5096872;28;20024;-50
2022/10/09 05:29:52;;;;;;;10.27;7.18;;;;;;;4.36;87.09;102378.41;5095647;28;20471;-51
2022/10/09 05:32:17;;;;;;;8.65;6.72;;;;;;;4.38;86.95;102373.09;5096671;28;20032;-45
2022/10/09 05:34:42;;;;;;;11.88;6.97;;;;;;;4.36;87.20;102374.94;5095429;28;20048;-47
2022/10/09 05:37:08;;;;;;;7.32;6.63;;;;;;;4.33;87.56;102367.09;5095242;28;20025;-46
2022/10/09 05:39:34;;;;;;;9.70;6.47;;;;;;;4.31;87.45;102376.81;5094866;28;20028;-48
2022/10/09 05:42:00;;;;;;;10.38;6.45;;;;;;;4.31;87.47;102372.41;5095317;28;20025;-45
2022/10/09 05:44:25;;;;;;;10.48;7.40;;;;;;;4.28;87.62;102379.50;5094405;28;20029;-49
2022/10/09 05:46:50;;;;;;;12.50;6.47;;;;;;;4.28;88.08;102379.50;5095001;28;20025;-49
2022/10/09 05:49:16;;;;;;;9.85;6.70;;;;;;;4.26;88.43;102376.94;5094901;28;20049;-48
2022/10/09 05:51:41;;;;;;;10.57;6.97;;;;;;;4.26;88.42;102366.41;5091964;28;20076;-50
2022/10/09 05:54:11;;;;;;;8.35;6.20;;;;;;;4.25;88.53;102376.06;5092299;28;20027;-48
2022/10/09 05:56:38;;;;;;;8.85;6.25;;;;;;;4.26;88.13;102371.66;5091481;28;20036;-48
2022/10/09 05:59:13;;;;;;;10.23;6.38;;;;;;;4.26;88.54;102371.66;5091223;28;20100;-52
2022/10/09 06:01:41;;;;;;;8.73;6.47;;;;;;;4.22;88.77;102373.50;5090844;28;20604;-46
2022/10/09 06:04:10;;;;;;;11.48;6.03;;;;;;;4.24;88.81;102374.34;5090974;28;20084;-50
2022/10/09 06:06:37;;;;;;;10.05;6.30;;;;;;;4.24;88.73;102376.09;5091439;28;20084;-49
2022/10/09 06:09:04;;;;;;;12.00;6.50;;;;;;;4.23;89.00;102372.63;5092074;28;20032;-45
2022/10/09 06:11:32;;;;;;;11.75;6.20;;;;;;;4.23;89.31;102371.72;5092050;28;20017;-49
2022/10/09 06:13:59;;;;;;;9.30;6.72;;;;;;;4.24;89.33;102374.34;5091733;28;20035;-47
2022/10/09 06:16:29;;;;;;;9.60;6.50;;;;;;;4.23;89.31;102374.38;5091481;28;20060;-48
2022/10/09 06:18:56;;;;;;;10.10;6.05;;;;;;;4.24;89.38;102370.84;5091686;28;20039;-48
2022/10/09 06:21:22;;;;;;;12.55;6.68;;;;;;;4.22;89.77;102378.78;5083848;28;20036;-50
2022/10/09 06:23:49;;;;;;;10.40;6.28;;;;;;;4.25;89.97;102377.84;5079732;28;20039;-49
2022/10/09 06:26:15;;;;;;;11.93;6.18;;;;;;;4.25;90.03;102376.06;5080269;28;20074;-48
2022/10/09 06:28:40;;;;;;;12.57;6.53;;;;;;;4.28;90.24;102384.78;5078447;28;20430;-48
2022/10/09 06:31:12;;;;;;;11.23;6.55;;;;;;;4.29;90.92;102383.88;5073962;28;20043;-51
2022/10/09 06:33:39;;;;;;;11.10;6.55;;;;;;;4.30;90.54;102382.97;5077368;28;20044;-50
2022/10/09 06:36:08;;;;;;;12.07;6.47;;;;;;;4.29;90.84;102376.84;5076842;28;20429;-49
2022/10/09 06:38:35;;;;;;;11.10;7.03;;;;;;;4.33;90.96;102382.88;5076944;28;20032;-52
2022/10/09 06:41:02;;;;;;;10.20;6.78;;;;;;;4.34;91.31;102388.13;5069136;28;20033;-50
2022/10/09 06:43:27;;;;;;;11.93;6.88;;;;;;;4.36;91.52;102385.44;5077589;28;20024;-47
2022/10/09 06:45:52;;;;;;;8.63;6.43;;;;;;;4.37;91.34;102385.41;5077859;28;20044;-51
2022/10/09 06:48:17;;;;;;;11.57;6.68;;;;;;;4.39;91.67;102385.38;5075768;28;20031;-47
2022/10/09 06:50:43;;;;;;;13.80;7.10;;;;;;;4.41;92.15;102379.19;5073119;28;20104;-50
2022/10/09 06:53:08;;;;;;;9.82;6.47;;;;;;;4.43;91.89;102379.16;5072432;28;20024;-48
2022/10/09 06:55:33;;;;;;;11.52;7.25;;;;;;;4.47;92.49;102375.50;5075846;28;20119;-50
2022/10/09 06:57:58;;;;;;;12.40;7.32;;;;;;;4.50;92.85;102382.47;5076010;28;20020;-51
2022/10/09 07:00:24;;;;;;;15.38;7.18;;;;;;;4.54;93.31;102384.09;5073103;28;20082;-48
2022/10/09 07:02:49;;;;;;;10.35;6.35;;;;;;;4.58;93.35;102383.09;5072855;28;20486;-51
2022/10/09 07:05:15;;;;;;;13.93;7.60;;;;;;;4.61;93.66;102383.91;5075023;28;20179;-47
2022/10/09 07:07:41;;;;;;;11.68;7.03;;;;;;;4.68;93.59;102386.38;5076031;28;20367;-49
2022/10/09 07:10:08;;;;;;;12.93;7.72;;;;;;;4.71;94.36;102384.50;5057945;28;20040;-49
2022/10/09 07:12:35;;;;;;;14.35;7.70;;;;;;;4.75;94.60;102388.78;5074312;28;20044;-49
2022/10/09 07:15:00;;;;;;;16.35;8.68;;;;;;;4.81;94.94;102383.38;5073528;28;20037;-50
2022/10/09 07:17:26;;;;;;;13.70;8.00;;;;;;;4.89;95.82;102384.91;5075330;28;20021;-47
2022/10/09 07:19:51;;;;;;;11.68;8.18;;;;;;;4.95;96.19;102384.75;5074950;28;20047;-49
2022/10/09 07:22:16;;;;;;;14.68;9.25;;;;;;;5.06;96.69;102381.81;5075086;28;20052;-48
2022/10/09 07:24:42;;;;;;;15.73;9.85;;;;;;;5.12;97.43;102379.84;5072580;28;20112;-50
2022/10/09 07:27:07;;;;;;;16.20;8.82;;;;;;;5.19;97.56;102378.75;5075827;28;20029;-50
2022/10/09 07:29:32;;;;;;;14.38;9.48;;;;;;;5.28;97.86;102379.41;5073940;28;20083;-47
2022/10/09 07:31:57;;;;;;;22.17;10.07;;;;;;;5.38;98.59;102379.09;5072544;28;20013;-51
2022/10/09 07:34:23;;;;;;;15.95;10.02;;;;;;;5.46;98.51;102376.25;5072532;28;20032;-48
2022/10/09 07:36:48;;;;;;;16.75;9.68;;;;;;;5.57;98.91;102379.38;5071271;28;20028;-50
2022/10/09 07:39:13;;;;;;;16.40;10.52;;;;;;;5.67;98.94;102373.84;5073235;28;20044;-51
2022/10/09 07:41:39;;;;;;;15.30;10.82;;;;;;;5.75;98.99;102379.72;5073483;28;20505;-50
2022/10/09 07:44:04;;;;;;;17.45;9.88;;;;;;;5.82;99.17;102372.50;5075071;28;20020;-52
2022/10/09 07:46:29;;;;;;;22.80;11.90;;;;;;;5.94;99.29;102380.00;5073628;28;20506;-48
2022/10/09 07:48:54;;;;;;;19.98;12.82;;;;;;;6.05;99.60;102383.19;5075309;28;20094;-50
2022/10/09 07:51:22;;;;;;;20.80;12.27;;;;;;;6.18;99.56;102380.13;5074088;28;20120;-49
2022/10/09 07:53:48;;;;;;;41.22;22.92;;;;;;;6.33;99.39;102384.91;5075708;28;20021;-51
2022/10/09 07:56:15;;;;;;;38.22;21.55;;;;;;;6.48;99.60;102380.88;5079777;28;20127;-51
2022/10/09 07:58:41;;;;;;;23.60;14.18;;;;;;;6.63;99.36;102380.34;5077266;28;20041;-47
2022/10/09 08:01:08;;;;;;;27.85;16.45;;;;;;;6.79;99.35;102378.00;5058473;28;20032;-49
2022/10/09 08:03:35;;;;;;;22.65;13.68;;;;;;;6.96;98.62;102372.13;5079370;28;20138;-47
2022/10/09 08:06:00;;;;;;;24.55;13.52;;;;;;;7.16;98.13;102368.72;5079472;28;20082;-46
2022/10/09 08:08:26;;;;;;;21.15;12.85;;;;;;;7.35;97.82;102360.94;5076215;28;20387;-48
2022/10/09 08:10:51;;;;;;;15.50;11.75;;;;;;;7.52;97.58;102357.63;5075576;28;20028;-47
2022/10/09 08:13:16;;;;;;;20.67;13.18;;;;;;;7.75;96.81;102354.09;5080219;28;20028;-47
2022/10/09 08:15:43;;;;;;;17.63;12.93;;;;;;;7.95;96.54;102360.34;5077477;28;20078;-47
2022/10/09 08:18:11;;;;;;;16.73;11.15;;;;;;;8.13;94.92;102351.66;5076917;28;20075;-46
2022/10/09 08:20:37;;;;;;;15.85;10.38;;;;;;;8.34;94.80;102357.81;5087124;28;20075;-47
2022/10/09 08:23:03;;;;;;;18.70;10.65;;;;;;;8.58;94.01;102351.56;5081036;28;20026;-47
2022/10/09 08:25:28;;;;;;;15.70;10.27;;;;;;;8.84;92.55;102353.03;5061310;28;20056;-47
2022/10/09 08:27:54;;;;;;;15.77;9.68;;;;;;;9.03;91.21;102351.28;5078090;28;20031;-47
2022/10/09 08:30:19;;;;;;;22.33;10.20;;;;;;;9.28;90.64;102344.84;5078908;28;20103;-46
2022/10/09 08:32:45;;;;;;;15.88;8.57;;;;;;;9.50;89.70;102349.13;5074281;28;20033;-47
2022/10/09 08:35:10;;;;;;;14.65;8.10;;;;;;;9.76;88.40;102345.22;5077939;28;20494;-47
2022/10/09 08:37:35;;;;;;;15.35;8.27;;;;;;;9.94;87.04;102339.00;5071532;28;20068;-47
2022/10/09 08:40:02;;;;;;;18.05;8.60;;;;;;;10.16;86.60;102345.88;5063928;28;20032;-45
2022/10/09 08:42:36;;;;;;;17.60;8.50;;;;;;;10.31;84.83;102330.94;5066855;28;20041;-47
2022/10/09 08:45:02;;;;;;;13.55;7.57;;;;;;;10.58;83.87;102338.44;5066360;28;20121;-46
2022/10/09 08:47:39;;;;;;;17.65;8.25;;;;;;;10.73;82.50;102322.53;5071091;28;20483;-47
2022/10/09 08:50:09;;;;;;;13.02;7.65;;;;;;;11.03;81.66;102329.78;5075768;28;20052;-47
2022/10/09 08:52:45;;;;;;;12.63;8.18;;;;;;;11.17;79.31;102329.03;5075110;28;20052;-49
2022/10/09 08:55:21;;;;;;;12.80;6.47;;;;;;;11.40;78.55;102316.25;5055867;28;20036;-51
2022/10/09 08:57:50;;;;;;;17.40;6.82;;;;;;;11.58;77.89;102315.19;5068924;28;20044;-50
2022/10/09 09:00:18;;;;;;;11.50;5.35;;;;;;;11.83;76.07;102319.09;5078747;28;20074;-52
2022/10/09 09:03:18;;;;;;;12.07;5.80;;;;;;;11.90;76.77;102314.28;5080061;28;20390;-49
2022/10/09 09:05:46;;;;;;;13.48;5.40;;;;;;;12.05;74.38;102301.91;5070557;28;20433;-49
2022/10/09 09:08:51;;;;;;;13.85;5.70;;;;;;;12.24;75.30;102305.19;5062010;28;20043;-49
2022/10/09 09:11:29;;;;;;;13.82;5.15;;;;;;;12.43;72.86;102301.41;5076031;28;20429;-49
2022/10/09 09:14:13;;;;;;;12.18;5.03;;;;;;;12.57;71.57;102298.72;5076173;28;20095;-50
2022/10/09 09:17:01;;;;;;;12.15;4.68;;;;;;;12.70;71.16;102299.66;5075906;28;20116;-49
2022/10/09 09:19:48;;;;;;;7.93;4.88;;;;;;;12.94;71.66;102299.09;5076634;28;20039;-50
2022/10/09 09:22:16;;;;;;;9.90;5.70;;;;;;;13.16;68.83;102293.25;5073773;28;20052;-53
2022/10/09 09:24:46;;;;;;;11.57;5.97;;;;;;;13.32;67.08;102294.00;5088515;28;20048;-49
2022/10/09 09:27:24;;;;;;;11.80;4.53;;;;;;;13.48;66.98;102287.66;5086017;28;20016;-52
2022/10/09 09:30:00;;;;;;;14.45;4.93;;;;;;;13.63;67.77;102275.09;5074055;28;20033;-51
2022/10/09 09:32:28;;;;;;;10.90;6.30;;;;;;;13.83;65.63;102273.75;5079384;28;20439;-49
2022/10/09 09:35:14;;;;;;;11.77;5.60;;;;;;;13.98;66.12;102270.03;5080002;28;20028;-49
2022/10/09 09:37:40;;;;;;;9.32;4.90;;;;;;;14.18;65.16;102268.66;5085604;28;20032;-52
2022/10/09 09:40:13;;;;;;;9.50;4.50;;;;;;;14.33;64.22;102257.88;5083801;28;20077;-49
2022/10/09 09:42:39;;;;;;;10.85;4.60;;;;;;;14.52;62.68;102257.44;5080725;28;20048;-49
2022/10/09 09:45:06;;;;;;;9.57;4.28;;;;;;;14.67;61.44;102258.19;5079885;28;20024;-49
2022/10/09 09:47:37;;;;;;;10.82;5.10;;;;;;;14.91;62.84;102247.56;5080349;28;20052;-50
2022/10/09 09:50:05;;;;;;;9.70;5.18;;;;;;;15.03;61.92;102243.13;5082490;28;20044;-48
2022/10/09 09:52:36;;;;;;;8.63;5.40;;;;;;;15.24;61.87;102238.88;5096141;28;20028;-50
2022/10/09 09:55:02;;;;;;;9.40;4.28;;;;;;;15.50;61.62;102238.75;5097004;28;20028;-48
2022/10/09 09:57:32;;;;;;;7.68;4.47;;;;;;;15.66;59.13;102236.59;5094253;28;20051;-49
2022/10/09 10:00:14;;;;;;;9.00;4.25;;;;;;;15.68;59.66;102229.31;5096457;28;20027;-47
2022/10/09 10:02:39;;;;;;;9.77;4.35;;;;;;;15.79;58.09;102231.22;5095514;28;20052;-47
2022/10/09 10:05:15;;;;;;;10.40;4.55;;;;;;;15.98;60.34;102225.28;5097455;28;20012;-49
2022/10/09 10:07:40;;;;;;;12.18;4.30;;;;;;;16.17;57.83;102221.16;5094222;28;20016;-53
2022/10/09 10:10:08;;;;;;;9.87;3.73;;;;;;;16.23;56.89;102226.88;5089944;28;20024;-53
2022/10/09 10:12:42;;;;;;;10.45;4.00;;;;;;;16.35;57.93;102218.84;5080708;28;20799;-52
2022/10/09 10:15:21;;;;;;;9.82;4.15;;;;;;;16.48;57.62;102222.25;5078977;28;20115;-50
2022/10/09 10:17:53;;;;;;;9.65;3.78;;;;;;;16.51;54.54;102218.50;5077238;28;20036;-51
2022/10/09 10:20:19;;;;;;;9.40;3.40;;;;;;;16.78;57.24;102208.19;5079724;28;20145;-50
2022/10/09 10:22:53;;;;;;;14.55;4.03;;;;;;;16.88;55.17;102213.69;5078791;28;20036;-49
2022/10/09 10:25:22;;;;;;;6.93;3.40;;;;;;;16.95;53.48;102214.94;5079573;28;20033;-50
2022/10/09 10:27:52;;;;;;;9.93;3.22;;;;;;;17.15;54.88;102210.59;5078846;28;20037;-48
2022/10/09 10:30:18;;;;;;;9.73;4.10;;;;;;;17.30;53.85;102204.91;5073076;28;20395;-50
2022/10/09 10:33:12;;;;;;;9.02;3.53;;;;;;;17.36;55.04;102196.34;5076761;28;20466;-51
2022/10/09 10:35:41;;;;;;;8.18;3.22;;;;;;;17.41;52.41;102194.13;5074688;28;20124;-50
2022/10/09 10:38:16;;;;;;;7.03;3.58;;;;;;;17.37;51.99;102198.91;5065996;28;20082;-52
2022/10/09 10:40:48;;;;;;;9.30;3.60;;;;;;;17.54;50.40;102185.88;5073849;28;20045;-49
2022/10/09 10:43:35;;;;;;;10.77;3.28;;;;;;;17.72;52.98;102178.94;5072044;28;20502;-48
2022/10/09 10:46:37;;;;;;;6.47;3.15;;;;;;;18.01;53.78;102177.44;5072317;28;20036;-51
2022/10/09 10:49:03;;;;;;;6.60;2.90;;;;;;;18.27;49.93;102175.16;5071821;28;20041;-48
2022/10/09 10:51:40;;;;;;;9.00;3.25;;;;;;;18.26;49.21;102168.06;5072203;28;20052;-52
2022/10/09 10:54:25;;;;;;;6.00;2.85;;;;;;;18.31;51.08;102169.34;5074521;28;20317;-51
2022/10/09 10:57:12;;;;;;;7.93;2.90;;;;;;;18.38;50.16;102166.13;5073683;28;20387;-48
2022/10/09 10:59:44;;;;;;;10.27;3.03;;;;;;;18.42;47.21;102152.25;5073872;28;20032;-50
2022/10/09 11:02:31;;;;;;;6.80;2.75;;;;;;;18.42;50.07;102156.81;5074495;28;20045;-50
2022/10/09 11:05:14;;;;;;;7.10;3.40;;;;;;;18.40;46.79;102151.56;5072293;28;20394;-51
2022/10/09 11:08:15;;;;;;;6.55;2.72;;;;;;;18.64;50.72;102148.47;5072197;28;20131;-47
2022/10/09 11:11:02;;;;;;;9.55;2.97;;;;;;;18.87;49.41;102142.91;5076414;28;20044;-48
2022/10/09 11:13:33;;;;;;;10.13;3.08;;;;;;;19.01;47.38;102142.47;5075636;28;20052;-51
2022/10/09 11:16:21;;;;;;;9.32;2.90;;;;;;;19.07;48.63;102132.97;5081553;28;20046;-49
2022/10/09 11:19:15;;;;;;;4.63;2.35;;;;;;;19.12;48.75;102129.84;5083366;28;20068;-50
2022/10/09 11:21:51;;;;;;;5.82;2.60;;;;;;;19.20;45.48;102125.47;5082602;28;20119;-50
2022/10/09 11:24:31;;;;;;;8.90;2.80;;;;;;;19.22;47.48;102123.47;5081678;28;20028;-51
2022/10/09 11:27:18;;;;;;;7.55;2.95;;;;;;;19.29;47.08;102117.50;5085585;28;20153;-50
2022/10/09 11:29:50;;;;;;;8.90;3.50;;;;;;;19.26;46.20;102115.09;5070081;28;20072;-49
2022/10/09 11:32:18;;;;;;;6.28;2.92;;;;;;;19.22;45.50;102109.16;5065487;28;20047;-48
2022/10/09 11:34:53;;;;;;;5.20;2.78;;;;;;;19.25;45.96;102108.84;5063727;28;20029;-47
2022/10/09 11:37:27;;;;;;;8.60;3.03;;;;;;;19.22;48.16;102109.16;5063778;28;20075;-48